Time;durP1;ratioP1;P1;durP2;ratioP2;P2;SDS_P1;SDS_P2;PMS_P1;PMS_P2;Temp;Humidity;BMP_temperature;BMP_pressure;BME280_temperature;BME280_humidity;BME280_pressure;Samples;Min_cycle;Max_cycle;Signal;HPM_P1;HPM_P2
2022/06/27 00:02:33;;;;;;;0.00;0.00;;;24.90;67.00;;;;;;4192669;28;20132;-70
2022/06/27 00:04:55;;;;;;;0.00;0.00;;;24.90;67.00;;;;;;4191474;28;20048;-70
2022/06/27 00:07:17;;;;;;;0.00;0.00;;;24.80;66.80;;;;;;4192321;28;20044;-70
2022/06/27 00:09:39;;;;;;;0.00;0.00;;;24.90;67.00;;;;;;4192026;28;20036;-69
2022/06/27 00:12:02;;;;;;;0.00;0.00;;;24.90;67.00;;;;;;4191927;28;20048;-69
2022/06/27 00:14:24;;;;;;;0.00;0.00;;;24.80;67.00;;;;;;4192316;28;20055;-69
2022/06/27 00:16:47;;;;;;;0.20;0.20;;;24.80;67.10;;;;;;4191986;28;20430;-70
2022/06/27 00:19:10;;;;;;;0.00;0.00;;;24.80;67.10;;;;;;4192219;28;20471;-70
2022/06/27 00:21:32;;;;;;;0.10;0.10;;;24.80;67.20;;;;;;4191765;28;20052;-70
2022/06/27 00:23:55;;;;;;;0.80;0.80;;;24.80;68.10;;;;;;4192355;28;20047;-70
2022/06/27 00:26:16;;;;;;;0.00;0.00;;;24.80;67.40;;;;;;4191875;28;20052;-71
2022/06/27 00:28:39;;;;;;;0.00;0.00;;;24.80;67.40;;;;;;4190409;28;20547;-70
2022/06/27 00:31:01;;;;;;;0.00;0.00;;;24.80;67.50;;;;;;4192185;28;20060;-71
2022/06/27 00:33:24;;;;;;;0.30;0.30;;;24.80;67.50;;;;;;4190814;28;20110;-71
2022/06/27 00:35:49;;;;;;;0.00;0.00;;;24.80;67.60;;;;;;4191603;28;20110;-71
2022/06/27 00:38:11;;;;;;;1.95;1.65;;;24.80;67.90;;;;;;4192168;28;20060;-70
2022/06/27 00:40:34;;;;;;;0.00;0.00;;;24.80;67.90;;;;;;4191920;28;20483;-71
2022/06/27 00:42:56;;;;;;;0.00;0.00;;;24.80;67.80;;;;;;4192254;28;20060;-70
2022/06/27 00:45:18;;;;;;;0.00;0.00;;;24.80;67.60;;;;;;4191919;28;20468;-70
2022/06/27 00:47:40;;;;;;;0.10;0.10;;;24.80;67.70;;;;;;4192237;28;20048;-70
2022/06/27 00:50:03;;;;;;;0.00;0.00;;;24.80;67.70;;;;;;4211909;28;20052;-70
2022/06/27 00:52:27;;;;;;;0.00;0.00;;;24.80;67.70;;;;;;4174101;28;20127;-70
2022/06/27 00:54:49;;;;;;;0.10;0.10;;;24.80;67.80;;;;;;4175302;28;20476;-70
2022/06/27 00:57:13;;;;;;;0.00;0.00;;;24.80;67.80;;;;;;4174028;28;20041;-70
2022/06/27 00:59:36;;;;;;;0.22;0.20;;;24.70;67.90;;;;;;4185373;28;20139;-70
2022/06/27 01:01:59;;;;;;;0.20;0.20;;;24.70;67.80;;;;;;4190763;28;20060;-70
2022/06/27 01:04:21;;;;;;;2.38;0.32;;;24.70;67.80;;;;;;4191830;28;20466;-70
2022/06/27 01:06:45;;;;;;;0.00;0.00;;;24.70;67.80;;;;;;4190748;28;20045;-70
2022/06/27 01:09:07;;;;;;;0.00;0.00;;;24.70;67.80;;;;;;4189991;28;20072;-70
2022/06/27 01:11:30;;;;;;;0.35;0.35;;;24.70;67.80;;;;;;4191717;28;20510;-70
2022/06/27 01:13:52;;;;;;;0.10;0.10;;;24.70;67.80;;;;;;4191679;28;20044;-70
2022/06/27 01:16:15;;;;;;;0.13;0.13;;;24.70;67.80;;;;;;4191808;28;20083;-70
2022/06/27 01:18:37;;;;;;;0.00;0.00;;;24.70;67.90;;;;;;4190517;28;20490;-70
2022/06/27 01:21:00;;;;;;;0.00;0.00;;;24.70;67.80;;;;;;4193525;28;20052;-71
2022/06/27 01:23:24;;;;;;;2.33;1.17;;;24.70;67.90;;;;;;4193608;28;20040;-70
2022/06/27 01:25:46;;;;;;;0.20;0.20;;;24.70;67.90;;;;;;4179225;28;20079;-70
2022/06/27 01:28:09;;;;;;;0.00;0.00;;;24.70;68.80;;;;;;4194452;28;20129;-69
2022/06/27 01:30:31;;;;;;;0.00;0.00;;;24.70;67.90;;;;;;4193653;28;20096;-69
2022/06/27 01:32:53;;;;;;;0.57;0.25;;;24.70;67.90;;;;;;4194227;28;20052;-69
2022/06/27 01:35:17;;;;;;;0.10;0.10;;;24.70;67.90;;;;;;4193493;28;20682;-70
2022/06/27 01:37:39;;;;;;;0.00;0.00;;;24.70;67.90;;;;;;4193256;28;20475;-69
2022/06/27 01:40:04;;;;;;;0.10;0.10;;;24.70;68.00;;;;;;4193492;28;20068;-69
2022/06/27 01:42:27;;;;;;;0.28;0.28;;;24.60;67.90;;;;;;4193319;28;20045;-69
2022/06/27 01:44:49;;;;;;;0.00;0.00;;;24.60;68.00;;;;;;4194309;28;20059;-69
2022/06/27 01:47:11;;;;;;;0.35;0.35;;;24.60;68.10;;;;;;4193270;28;20048;-69
2022/06/27 01:49:42;;;;;;;0.00;0.00;;;24.60;68.10;;;;;;4192951;28;20056;-69
2022/06/27 01:52:05;;;;;;;0.10;0.10;;;24.60;68.10;;;;;;4193168;28;20121;-69
2022/06/27 01:54:27;;;;;;;0.00;0.00;;;24.60;68.10;;;;;;4193055;28;20533;-69
2022/06/27 01:56:53;;;;;;;0.20;0.20;;;24.60;68.10;;;;;;4193083;28;20062;-69
2022/06/27 01:59:16;;;;;;;0.00;0.00;;;24.70;68.20;;;;;;4190074;28;20056;-69
2022/06/27 02:01:40;;;;;;;0.00;0.00;;;24.60;68.20;;;;;;4193163;28;20059;-69
2022/06/27 02:04:03;;;;;;;0.00;0.00;;;24.60;68.20;;;;;;4192448;28;20130;-70
2022/06/27 02:06:25;;;;;;;0.25;0.25;;;24.60;68.20;;;;;;4159969;28;20132;-69
2022/06/27 02:08:50;;;;;;;0.00;0.00;;;24.60;68.40;;;;;;4173603;28;20064;-69
2022/06/27 02:11:13;;;;;;;0.00;0.00;;;24.60;68.20;;;;;;4188156;28;20072;-69
2022/06/27 02:13:36;;;;;;;0.10;0.10;;;24.60;68.20;;;;;;4159659;28;20053;-70
2022/06/27 02:16:07;;;;;;;0.20;0.20;;;24.60;68.30;;;;;;4159503;28;20048;-70
2022/06/27 02:18:30;;;;;;;0.00;0.00;;;24.60;68.30;;;;;;4159354;28;20057;-69
2022/06/27 02:20:52;;;;;;;0.00;0.00;;;24.60;68.40;;;;;;4159907;28;20254;-70
2022/06/27 02:23:15;;;;;;;0.03;0.03;;;24.60;68.40;;;;;;4159348;28;20069;-70
2022/06/27 02:25:45;;;;;;;0.20;0.20;;;24.50;68.40;;;;;;4159610;28;20049;-69
2022/06/27 02:28:08;;;;;;;0.00;0.00;;;24.50;68.50;;;;;;4160609;28;20053;-69
2022/06/27 02:30:31;;;;;;;0.00;0.00;;;24.60;68.60;;;;;;4181299;28;20070;-70
2022/06/27 02:32:53;;;;;;;0.00;0.00;;;24.50;68.60;;;;;;4193096;28;20047;-70
2022/06/27 02:35:16;;;;;;;0.00;0.00;;;24.50;68.70;;;;;;4192348;28;20044;-70
2022/06/27 02:37:39;;;;;;;0.00;0.00;;;24.50;68.80;;;;;;4191894;28;20094;-70
2022/06/27 02:40:02;;;;;;;0.00;0.00;;;24.50;68.90;;;;;;4193360;28;20494;-71
2022/06/27 02:42:27;;;;;;;0.00;0.00;;;24.50;68.90;;;;;;4191777;28;20078;-70
2022/06/27 02:44:50;;;;;;;0.00;0.00;;;24.50;69.00;;;;;;4193657;28;20040;-70
2022/06/27 02:47:15;;;;;;;0.00;0.00;;;24.50;69.00;;;;;;4205504;28;20052;-70
2022/06/27 02:49:39;;;;;;;0.30;0.30;;;24.50;69.00;;;;;;4203926;28;20055;-70
2022/06/27 02:52:10;;;;;;;0.10;0.10;;;24.50;69.10;;;;;;4175596;28;20045;-69
2022/06/27 02:54:43;;;;;;;0.68;0.68;;;24.50;69.20;;;;;;4175348;28;20048;-69
2022/06/27 02:57:20;;;;;;;0.45;0.45;;;24.40;69.10;;;;;;4189758;28;20469;-70
2022/06/27 02:59:45;;;;;;;0.00;0.00;;;24.50;69.30;;;;;;4177706;28;20049;-70
2022/06/27 03:02:09;;;;;;;0.00;0.00;;;24.50;69.30;;;;;;4177739;28;20053;-70
2022/06/27 03:04:54;;;;;;;0.00;0.00;;;24.40;69.30;;;;;;4192143;28;20411;-70
2022/06/27 03:07:16;;;;;;;0.00;0.00;;;24.40;69.40;;;;;;4191768;28;20049;-70
2022/06/27 03:09:38;;;;;;;0.05;0.05;;;24.40;69.40;;;;;;4158949;28;20045;-70
2022/06/27 03:12:00;;;;;;;0.00;0.00;;;24.40;69.50;;;;;;4158301;28;20107;-70
2022/06/27 03:14:27;;;;;;;0.00;0.00;;;24.40;69.60;;;;;;4159056;28;20139;-70
2022/06/27 03:16:51;;;;;;;2.83;0.85;;;24.40;69.60;;;;;;4185465;28;20048;-70
2022/06/27 03:19:13;;;;;;;0.00;0.00;;;24.40;69.60;;;;;;4191908;28;20916;-71
2022/06/27 03:21:42;;;;;;;0.00;0.00;;;24.40;69.60;;;;;;4191643;28;20127;-70
2022/06/27 03:24:05;;;;;;;0.80;0.75;;;24.40;69.60;;;;;;4177850;28;20052;-70
2022/06/27 03:26:28;;;;;;;0.10;0.10;;;24.40;69.60;;;;;;4191281;28;20052;-70
2022/06/27 03:28:50;;;;;;;0.00;0.00;;;24.30;69.50;;;;;;4191680;28;20102;-70
2022/06/27 03:31:12;;;;;;;0.00;0.00;;;24.30;69.60;;;;;;4191327;28;20067;-70
2022/06/27 03:33:35;;;;;;;0.10;0.10;;;24.30;69.60;;;;;;4191244;28;20056;-70
2022/06/27 03:36:06;;;;;;;0.30;0.30;;;24.30;69.70;;;;;;4191138;28;20082;-70
2022/06/27 03:38:29;;;;;;;0.00;0.00;;;24.30;69.80;;;;;;4190606;28;20132;-70
2022/06/27 03:40:52;;;;;;;0.00;0.00;;;24.30;69.80;;;;;;4190518;28;20492;-69
2022/06/27 03:43:14;;;;;;;2.10;0.57;;;24.30;70.00;;;;;;4190936;28;20534;-70
2022/06/27 03:45:36;;;;;;;1.08;0.52;;;24.30;70.00;;;;;;4190856;28;20062;-70
2022/06/27 03:48:00;;;;;;;2.20;0.85;;;24.30;70.10;;;;;;4190878;28;20159;-70
2022/06/27 03:50:42;;;;;;;0.00;0.00;;;24.30;70.10;;;;;;4191606;28;20051;-70
2022/06/27 03:53:04;;;;;;;0.00;0.00;;;24.30;70.10;;;;;;4191024;28;20106;-70
2022/06/27 03:55:30;;;;;;;0.00;0.00;;;24.30;70.30;;;;;;4190385;28;20051;-70
2022/06/27 03:57:54;;;;;;;0.00;0.00;;;24.30;70.30;;;;;;4190679;28;20086;-70
2022/06/27 04:00:20;;;;;;;0.88;0.88;;;24.30;70.30;;;;;;4191008;28;20052;-69
2022/06/27 04:02:45;;;;;;;0.00;0.00;;;24.30;70.40;;;;;;4176324;28;20045;-70
2022/06/27 04:05:24;;;;;;;0.10;0.10;;;24.30;70.40;;;;;;4191148;28;20525;-70
2022/06/27 04:07:46;;;;;;;0.00;0.00;;;24.30;70.50;;;;;;4192073;28;20407;-70
2022/06/27 04:10:10;;;;;;;0.00;0.00;;;24.30;70.40;;;;;;4175989;28;20469;-69
2022/06/27 04:12:34;;;;;;;0.00;0.00;;;24.30;70.50;;;;;;4190667;28;20449;-69
2022/06/27 04:15:15;;;;;;;0.00;0.00;;;24.20;70.40;;;;;;4192008;28;20048;-69
2022/06/27 04:18:09;;;;;;;0.00;0.00;;;24.20;70.40;;;;;;4190743;28;20052;-69
2022/06/27 04:20:49;;;;;;;0.00;0.00;;;24.20;70.50;;;;;;4191948;28;20384;-69
2022/06/27 04:23:13;;;;;;;0.00;0.00;;;24.20;70.50;;;;;;4190430;28;20541;-69
2022/06/27 04:26:06;;;;;;;0.40;0.40;;;24.20;70.60;;;;;;4190663;28;20403;-70
2022/06/27 04:28:30;;;;;;;0.00;0.00;;;24.20;71.40;;;;;;4192041;28;20379;-69
2022/06/27 04:30:53;;;;;;;0.08;0.08;;;24.20;70.60;;;;;;4190926;28;20102;-69
2022/06/27 04:33:16;;;;;;;0.05;0.05;;;24.20;70.60;;;;;;4190233;28;20056;-69
2022/06/27 04:35:40;;;;;;;0.00;0.00;;;24.20;70.70;;;;;;4176709;28;20037;-68
2022/06/27 04:38:02;;;;;;;0.00;0.00;;;24.20;70.70;;;;;;4176213;28;20091;-69
2022/06/27 04:40:57;;;;;;;1.00;0.63;;;24.20;71.60;;;;;;4155782;28;20551;-69
2022/06/27 04:43:22;;;;;;;0.00;0.00;;;24.20;70.70;;;;;;4157209;28;20049;-69
2022/06/27 04:45:46;;;;;;;0.00;0.00;;;24.20;70.70;;;;;;4182102;28;20048;-69
2022/06/27 04:48:37;;;;;;;0.00;0.00;;;24.20;70.70;;;;;;4191252;28;20127;-69
2022/06/27 04:51:00;;;;;;;0.00;0.00;;;24.20;70.70;;;;;;4191627;28;20052;-69
2022/06/27 04:53:22;;;;;;;0.15;0.15;;;24.20;70.70;;;;;;4191848;28;20098;-70
2022/06/27 04:55:45;;;;;;;0.00;0.00;;;24.20;70.70;;;;;;4193554;28;20050;-65
2022/06/27 04:58:07;;;;;;;0.10;0.10;;;24.20;70.70;;;;;;4194366;28;20036;-69
2022/06/27 05:00:31;;;;;;;0.08;0.08;;;24.20;71.30;;;;;;4195766;28;20115;-68
2022/06/27 05:03:13;;;;;;;0.20;0.20;;;24.20;71.30;;;;;;4197186;27;20051;-68
2022/06/27 05:05:39;;;;;;;0.00;0.00;;;24.20;71.20;;;;;;4193850;27;20052;-68
2022/06/27 05:08:01;;;;;;;0.00;0.00;;;24.20;71.20;;;;;;4180070;28;20095;-68
2022/06/27 05:10:28;;;;;;;0.20;0.20;;;24.20;71.10;;;;;;4183556;28;20431;-67
2022/06/27 05:12:50;;;;;;;0.00;0.00;;;24.20;71.20;;;;;;4207370;28;20122;-68
2022/06/27 05:15:14;;;;;;;0.00;0.00;;;24.20;71.20;;;;;;4178804;28;20515;-68
2022/06/27 05:17:36;;;;;;;0.00;0.00;;;24.20;71.20;;;;;;4178658;28;20041;-67
2022/06/27 05:20:02;;;;;;;0.00;0.00;;;24.20;71.10;;;;;;4178514;28;20110;-68
2022/06/27 05:22:25;;;;;;;0.43;0.43;;;24.20;71.20;;;;;;4173987;28;20061;-67
2022/06/27 05:24:48;;;;;;;0.70;0.70;;;24.20;71.20;;;;;;4160577;28;20196;-67
2022/06/27 05:27:12;;;;;;;0.00;0.00;;;24.20;71.20;;;;;;4162838;28;20061;-67
2022/06/27 05:29:34;;;;;;;0.05;0.05;;;24.20;71.20;;;;;;4164480;28;20112;-67
2022/06/27 05:31:56;;;;;;;0.00;0.00;;;24.20;71.30;;;;;;4179198;28;20094;-67
2022/06/27 05:34:24;;;;;;;0.00;0.00;;;24.20;71.20;;;;;;4195621;28;20041;-67
2022/06/27 05:36:48;;;;;;;0.00;0.00;;;24.20;71.20;;;;;;4197387;27;20155;-67
2022/06/27 05:39:10;;;;;;;0.00;0.00;;;24.20;71.20;;;;;;4192869;28;20052;-67
2022/06/27 05:41:34;;;;;;;0.70;0.70;;;24.20;71.20;;;;;;4180738;28;20521;-67
2022/06/27 05:44:00;;;;;;;0.00;0.00;;;24.10;71.20;;;;;;4173074;28;20116;-67
2022/06/27 05:46:23;;;;;;;0.00;0.00;;;24.20;71.20;;;;;;4166926;28;20053;-66
2022/06/27 05:49:11;;;;;;;0.00;0.00;;;24.20;71.20;;;;;;4187266;28;20451;-67
2022/06/27 05:51:41;;;;;;;0.00;0.00;;;24.10;71.10;;;;;;4192773;28;20096;-67
2022/06/27 05:54:06;;;;;;;0.05;0.05;;;24.20;71.40;;;;;;4164887;28;20125;-67
2022/06/27 05:56:30;;;;;;;0.00;0.00;;;24.20;71.30;;;;;;4180786;28;20045;-67
2022/06/27 05:58:53;;;;;;;0.00;0.00;;;24.20;71.40;;;;;;4178875;28;20134;-68
2022/06/27 06:01:15;;;;;;;0.00;0.00;;;24.20;71.40;;;;;;4167584;28;20053;-67
2022/06/27 06:03:38;;;;;;;0.28;0.28;;;24.10;71.40;;;;;;4162576;28;20511;-68
2022/06/27 06:06:02;;;;;;;0.00;0.00;;;24.10;71.40;;;;;;4162271;28;20374;-68
2022/06/27 06:08:25;;;;;;;0.25;0.25;;;24.10;71.40;;;;;;4172820;28;20490;-67
2022/06/27 06:10:49;;;;;;;0.15;0.15;;;24.20;71.50;;;;;;4159752;28;20111;-68
2022/06/27 06:13:15;;;;;;;1.95;0.38;;;24.10;71.50;;;;;;4170157;28;20055;-67
2022/06/27 06:15:38;;;;;;;0.10;0.10;;;24.10;71.50;;;;;;4160076;28;20047;-68
2022/06/27 06:18:03;;;;;;;0.00;0.00;;;24.10;71.60;;;;;;4160260;28;20436;-67
2022/06/27 06:20:27;;;;;;;0.05;0.05;;;24.10;71.60;;;;;;4163233;28;20088;-68
2022/06/27 06:22:50;;;;;;;0.00;0.00;;;24.10;71.70;;;;;;4172215;28;20508;-67
2022/06/27 06:25:12;;;;;;;0.00;0.00;;;24.20;71.80;;;;;;4166347;28;21147;-68
2022/06/27 06:27:36;;;;;;;0.00;0.00;;;24.10;71.70;;;;;;4164582;28;20542;-67
2022/06/27 06:30:02;;;;;;;0.00;0.00;;;24.10;71.80;;;;;;4201153;28;20101;-67
2022/06/27 06:32:25;;;;;;;0.00;0.00;;;24.10;71.70;;;;;;4157494;28;20045;-68
2022/06/27 06:34:48;;;;;;;0.00;0.00;;;24.10;71.80;;;;;;4162306;28;20056;-68
2022/06/27 06:37:10;;;;;;;0.00;0.00;;;24.10;71.80;;;;;;4157523;28;20946;-66
2022/06/27 06:39:36;;;;;;;0.00;0.00;;;24.10;71.80;;;;;;4184464;28;20062;-68
2022/06/27 06:41:58;;;;;;;0.00;0.00;;;24.10;71.80;;;;;;4162506;28;20519;-67
2022/06/27 06:44:24;;;;;;;0.00;0.00;;;24.10;71.80;;;;;;4170833;28;20065;-67
2022/06/27 06:46:54;;;;;;;0.00;0.00;;;24.10;71.80;;;;;;4165558;28;20114;-68
2022/06/27 06:49:36;;;;;;;0.00;0.00;;;24.10;71.80;;;;;;4189706;28;20033;-68
2022/06/27 06:51:58;;;;;;;0.00;0.00;;;24.10;71.80;;;;;;4164590;28;20057;-68
2022/06/27 06:54:22;;;;;;;0.20;0.20;;;24.10;71.80;;;;;;4169403;28;20136;-68
2022/06/27 06:56:45;;;;;;;0.00;0.00;;;24.10;71.80;;;;;;4157748;28;20057;-68
2022/06/27 06:59:07;;;;;;;0.08;0.08;;;24.10;71.80;;;;;;4185720;28;20045;-67
2022/06/27 07:01:33;;;;;;;0.22;0.22;;;24.10;71.80;;;;;;4159537;28;20049;-67
2022/06/27 07:03:55;;;;;;;0.00;0.00;;;24.10;71.80;;;;;;4158228;28;20081;-67
2022/06/27 07:06:21;;;;;;;0.45;0.45;;;24.10;71.80;;;;;;4156447;28;20049;-67
2022/06/27 07:08:44;;;;;;;0.00;0.00;;;24.10;71.80;;;;;;4166018;28;20049;-67
2022/06/27 07:11:06;;;;;;;0.00;0.00;;;24.10;71.80;;;;;;4162973;28;20140;-67
2022/06/27 07:13:29;;;;;;;0.00;0.00;;;24.10;72.00;;;;;;4160462;28;20138;-68
2022/06/27 07:15:51;;;;;;;0.00;0.00;;;24.10;71.80;;;;;;4165681;28;20049;-67
2022/06/27 07:18:14;;;;;;;0.70;0.70;;;24.10;71.90;;;;;;4157561;28;20428;-68
2022/06/27 07:20:37;;;;;;;0.00;0.00;;;24.10;71.90;;;;;;4162397;28;20484;-67
2022/06/27 07:23:00;;;;;;;0.00;0.00;;;24.10;71.90;;;;;;4173187;28;20147;-67
2022/06/27 07:25:22;;;;;;;0.00;0.00;;;24.10;72.00;;;;;;4169298;28;20053;-67
2022/06/27 07:27:45;;;;;;;0.00;0.00;;;24.00;71.90;;;;;;4165491;28;20076;-67
2022/06/27 07:30:10;;;;;;;0.00;0.00;;;24.10;72.00;;;;;;4157657;28;20499;-67
2022/06/27 07:32:32;;;;;;;0.10;0.10;;;24.10;72.00;;;;;;4157440;28;20057;-68
2022/06/27 07:34:57;;;;;;;0.00;0.00;;;24.10;72.00;;;;;;4157874;28;20069;-68
2022/06/27 07:37:19;;;;;;;0.10;0.10;;;24.00;72.00;;;;;;4170235;28;20065;-67
2022/06/27 07:39:42;;;;;;;0.00;0.00;;;24.10;72.00;;;;;;4173216;28;20143;-67
2022/06/27 07:42:05;;;;;;;0.10;0.10;;;24.10;72.00;;;;;;4163084;28;20048;-68
2022/06/27 07:44:27;;;;;;;0.20;0.20;;;24.00;72.00;;;;;;4156973;28;20057;-67
2022/06/27 07:46:49;;;;;;;0.20;0.20;;;24.00;71.90;;;;;;4159998;28;20045;-67
2022/06/27 07:49:11;;;;;;;0.00;0.00;;;24.00;72.00;;;;;;4158066;28;20057;-66
2022/06/27 07:51:35;;;;;;;0.00;0.00;;;24.00;71.90;;;;;;4172956;28;20535;-70
2022/06/27 07:53:58;;;;;;;0.00;0.00;;;24.00;71.90;;;;;;4157554;28;20061;-64
2022/06/27 07:56:23;;;;;;;0.00;0.00;;;24.10;73.10;;;;;;4157271;28;20056;-68
2022/06/27 07:59:06;;;;;;;0.00;0.00;;;24.10;72.50;;;;;;4172458;28;20043;-66
2022/06/27 08:01:28;;;;;;;0.00;0.00;;;24.10;72.50;;;;;;4173042;28;20056;-67
2022/06/27 08:03:50;;;;;;;0.45;0.35;;;24.10;72.30;;;;;;4172628;28;20656;-68
2022/06/27 08:06:15;;;;;;;0.00;0.00;;;24.10;72.30;;;;;;4189832;28;20093;-70
2022/06/27 08:08:41;;;;;;;0.03;0.03;;;24.10;72.40;;;;;;4171428;28;20067;-71
2022/06/27 08:11:04;;;;;;;0.00;0.00;;;24.10;72.50;;;;;;4187521;28;20083;-70
2022/06/27 08:13:27;;;;;;;0.00;0.00;;;24.10;72.50;;;;;;4162931;28;20055;-69
2022/06/27 08:15:50;;;;;;;0.00;0.00;;;24.10;72.30;;;;;;4164262;28;20144;-70
2022/06/27 08:18:12;;;;;;;0.00;0.00;;;24.10;72.30;;;;;;4159558;28;20049;-68
2022/06/27 08:20:35;;;;;;;0.08;0.08;;;24.10;72.30;;;;;;4162648;28;20492;-69
2022/06/27 08:22:57;;;;;;;0.15;0.15;;;24.10;72.40;;;;;;4156075;28;20057;-69
2022/06/27 08:25:21;;;;;;;0.00;0.00;;;24.10;72.90;;;;;;4165979;28;20053;-70
2022/06/27 08:27:43;;;;;;;0.00;0.00;;;24.00;73.30;;;;;;4157174;28;20498;-72
2022/06/27 08:30:06;;;;;;;0.00;0.00;;;24.10;73.60;;;;;;4157332;28;20123;-70
2022/06/27 08:32:28;;;;;;;0.10;0.10;;;24.00;73.70;;;;;;4166717;28;20521;-68
2022/06/27 08:34:52;;;;;;;0.08;0.08;;;24.10;73.90;;;;;;4153670;28;20072;-69
2022/06/27 08:37:14;;;;;;;0.00;0.00;;;24.10;73.90;;;;;;4139413;28;20386;-74
2022/06/27 08:39:36;;;;;;;0.00;0.00;;;24.10;73.90;;;;;;4149124;28;20476;-70
2022/06/27 08:42:00;;;;;;;0.00;0.00;;;24.10;73.80;;;;;;4157296;28;20060;-75
2022/06/27 08:44:26;;;;;;;0.20;0.20;;;24.10;74.60;;;;;;4144655;28;20049;-67
2022/06/27 08:46:51;;;;;;;0.00;0.00;;;24.10;73.60;;;;;;4162622;28;20539;-69
2022/06/27 08:49:15;;;;;;;0.00;0.00;;;24.20;73.50;;;;;;4170663;28;20056;-65
2022/06/27 08:51:38;;;;;;;1.45;1.35;;;24.20;73.30;;;;;;4139721;28;20076;-72
2022/06/27 08:54:00;;;;;;;0.35;0.35;;;24.20;73.10;;;;;;4139018;28;20092;-68
2022/06/27 08:56:24;;;;;;;0.20;0.20;;;24.30;73.00;;;;;;4132532;28;20045;-69
2022/06/27 08:58:48;;;;;;;0.10;0.10;;;24.20;72.80;;;;;;4140098;28;20501;-68
2022/06/27 09:01:11;;;;;;;0.75;0.75;;;24.20;72.70;;;;;;4139819;28;20050;-68
2022/06/27 09:03:34;;;;;;;0.13;0.13;;;24.20;72.70;;;;;;4140475;28;20120;-68
2022/06/27 09:05:57;;;;;;;3.30;1.33;;;24.20;72.70;;;;;;4139490;28;20057;-67
2022/06/27 09:08:20;;;;;;;0.00;0.00;;;24.10;72.70;;;;;;4139794;28;20061;-68
2022/06/27 09:10:43;;;;;;;3.05;2.83;;;24.10;72.70;;;;;;4139319;28;20058;-68
2022/06/27 09:13:08;;;;;;;0.00;0.00;;;24.10;72.60;;;;;;4140494;28;20053;-68
2022/06/27 09:15:47;;;;;;;0.45;0.45;;;24.10;73.50;;;;;;4139745;28;20057;-68
2022/06/27 09:18:10;;;;;;;0.00;0.00;;;24.10;72.60;;;;;;4138577;28;20057;-68
2022/06/27 09:20:47;;;;;;;0.08;0.08;;;24.10;72.50;;;;;;4138166;28;20061;-70
2022/06/27 09:23:27;;;;;;;0.35;0.35;;;24.10;72.50;;;;;;4140213;28;20401;-68
2022/06/27 09:26:01;;;;;;;0.45;0.45;;;24.10;72.50;;;;;;4139817;28;20058;-69
2022/06/27 09:28:23;;;;;;;0.22;0.22;;;24.10;72.40;;;;;;4139789;28;20108;-68
2022/06/27 09:30:52;;;;;;;1.02;1.02;;;24.10;73.30;;;;;;4165934;28;20060;-77
2022/06/27 09:33:15;;;;;;;0.00;0.00;;;24.10;72.40;;;;;;4139861;28;20389;-75
2022/06/27 09:35:39;;;;;;;2.05;1.55;;;24.10;72.40;;;;;;4139152;28;20070;-75
2022/06/27 09:38:02;;;;;;;0.00;0.00;;;24.10;72.30;;;;;;4140022;28;20428;-76
2022/06/27 09:40:26;;;;;;;0.00;0.00;;;24.10;72.30;;;;;;4139340;28;20119;-75
2022/06/27 09:42:54;;;;;;;0.00;0.00;;;24.10;72.30;;;;;;4141049;28;20215;-75
2022/06/27 09:45:17;;;;;;;0.57;0.57;;;24.10;72.30;;;;;;4140784;28;20413;-75
2022/06/27 09:47:43;;;;;;;0.00;0.00;;;24.10;73.10;;;;;;4142742;28;20064;-75
2022/06/27 09:50:06;;;;;;;7.43;1.08;;;24.10;72.20;;;;;;4147472;28;20064;-76
2022/06/27 09:52:28;;;;;;;1.55;1.17;;;24.10;72.20;;;;;;4168585;28;20080;-75
2022/06/27 09:54:53;;;;;;;0.20;0.20;;;24.10;72.20;;;;;;4170913;28;20049;-74
2022/06/27 09:57:16;;;;;;;0.00;0.00;;;24.10;72.20;;;;;;4158798;28;20128;-75
2022/06/27 09:59:40;;;;;;;0.10;0.10;;;24.10;72.20;;;;;;4171538;28;20083;-74
2022/06/27 10:02:02;;;;;;;0.00;0.00;;;24.10;72.20;;;;;;4159170;28;20077;-74
2022/06/27 10:04:28;;;;;;;0.00;0.00;;;24.10;72.20;;;;;;4159248;28;20404;-75
2022/06/27 10:06:50;;;;;;;0.00;0.00;;;24.10;72.10;;;;;;4157253;28;20498;-76
2022/06/27 10:09:15;;;;;;;0.00;0.00;;;24.10;72.10;;;;;;4143682;28;20392;-75
2022/06/27 10:11:37;;;;;;;0.10;0.10;;;24.10;72.10;;;;;;4160200;28;20099;-76
2022/06/27 10:14:20;;;;;;;0.00;0.00;;;24.10;72.10;;;;;;4164206;28;20049;-77
2022/06/27 10:16:53;;;;;;;0.38;0.38;;;24.10;72.20;;;;;;4166220;28;20070;-74
2022/06/27 10:19:15;;;;;;;0.00;0.00;;;24.10;72.10;;;;;;4169800;28;20451;-76
2022/06/27 10:21:46;;;;;;;0.00;0.00;;;24.10;73.00;;;;;;4159565;28;20060;-75
2022/06/27 10:24:34;;;;;;;0.10;0.10;;;24.10;72.10;;;;;;4164075;28;20150;-75
2022/06/27 10:26:58;;;;;;;0.00;0.00;;;24.10;72.10;;;;;;4166767;28;20052;-75
2022/06/27 10:29:44;;;;;;;0.00;0.00;;;24.10;72.10;;;;;;4167553;28;20128;-75
2022/06/27 10:32:08;;;;;;;0.00;0.00;;;24.10;72.10;;;;;;4195727;28;20198;-76
2022/06/27 10:35:09;;;;;;;0.10;0.10;;;24.10;72.10;;;;;;4171148;28;20128;-74
2022/06/27 10:37:37;;;;;;;0.45;0.45;;;24.10;72.20;;;;;;4167952;28;20046;-74
2022/06/27 10:40:32;;;;;;;0.00;0.00;;;24.10;72.20;;;;;;4192860;28;20044;-73
2022/06/27 10:42:55;;;;;;;0.00;0.00;;;24.10;72.20;;;;;;4169572;28;20059;-74
2022/06/27 10:45:24;;;;;;;0.55;0.55;;;24.10;72.10;;;;;;4165426;28;20439;-75
2022/06/27 10:47:46;;;;;;;0.75;0.75;;;24.10;72.10;;;;;;4163917;28;20057;-73
2022/06/27 10:50:13;;;;;;;0.00;0.00;;;24.10;72.10;;;;;;4169107;28;20045;-73
2022/06/27 10:52:40;;;;;;;0.00;0.00;;;24.10;72.10;;;;;;4165817;28;20143;-73
2022/06/27 10:55:20;;;;;;;0.00;0.00;;;24.10;72.10;;;;;;4174288;28;20052;-72
2022/06/27 10:57:44;;;;;;;0.00;0.00;;;24.10;72.10;;;;;;4158101;28;20053;-73
2022/06/27 11:00:08;;;;;;;0.00;0.00;;;24.10;72.00;;;;;;4158264;28;20053;-72
2022/06/27 11:02:32;;;;;;;0.00;0.00;;;24.10;72.00;;;;;;4173777;28;20040;-73
2022/06/27 11:04:55;;;;;;;0.10;0.10;;;24.10;72.00;;;;;;4161522;28;20132;-73
2022/06/27 11:07:18;;;;;;;0.00;0.00;;;24.10;72.00;;;;;;4174106;28;20057;-73
2022/06/27 11:09:43;;;;;;;0.03;0.03;;;24.10;71.90;;;;;;4165044;28;20064;-74
2022/06/27 11:12:07;;;;;;;0.47;0.47;;;24.10;71.80;;;;;;4158797;28;20103;-69
2022/06/27 11:14:29;;;;;;;0.00;0.00;;;24.10;71.80;;;;;;4163530;28;20128;-67
2022/06/27 11:16:51;;;;;;;0.80;0.80;;;24.10;71.90;;;;;;4172998;28;20044;-67
2022/06/27 11:21:50;;;;;;;0.10;0.10;;;24.10;71.80;;;;;;4173640;28;20052;-68
2022/06/27 11:24:14;;;;;;;0.10;0.10;;;24.10;72.70;;;;;;4159174;28;20057;-68
2022/06/27 11:26:45;;;;;;;0.00;0.00;;;24.10;71.80;;;;;;4159864;28;20666;-68
2022/06/27 11:32:03;;;;;;;0.00;0.00;;;24.20;71.90;;;;;;4162003;28;20789;-69
2022/06/27 11:34:33;;;;;;;0.00;0.00;;;24.20;71.80;;;;;;4166519;28;20052;-68
2022/06/27 11:36:56;;;;;;;0.00;0.00;;;24.20;71.80;;;;;;4173023;28;20111;-68
2022/06/27 11:39:23;;;;;;;0.00;0.00;;;24.20;71.80;;;;;;4173435;28;20052;-68
2022/06/27 11:41:47;;;;;;;0.00;0.00;;;24.20;71.80;;;;;;4173340;28;20053;-68
2022/06/27 11:44:11;;;;;;;0.43;0.43;;;24.20;71.80;;;;;;4175938;28;20123;-70
2022/06/27 11:46:35;;;;;;;0.00;0.00;;;24.20;71.90;;;;;;4148847;28;20193;-70
2022/06/27 11:49:00;;;;;;;0.35;0.28;;;24.20;72.60;;;;;;4173055;28;20064;-70
2022/06/27 11:51:24;;;;;;;0.30;0.30;;;24.30;72.50;;;;;;4173094;28;20041;-69
2022/06/27 11:53:53;;;;;;;0.05;0.05;;;24.30;72.30;;;;;;4163611;28;20049;-69
2022/06/27 11:56:23;;;;;;;0.00;0.00;;;24.30;72.10;;;;;;4166787;28;20048;-69
2022/06/27 11:58:55;;;;;;;0.08;0.08;;;24.30;71.80;;;;;;4162322;28;20056;-69
2022/06/27 12:01:18;;;;;;;0.00;0.00;;;24.30;71.70;;;;;;4168927;28;20526;-71
2022/06/27 12:03:40;;;;;;;1.45;1.27;;;24.30;71.60;;;;;;4165330;28;20056;-69
2022/06/27 12:06:14;;;;;;;0.10;0.10;;;24.30;71.60;;;;;;4156330;28;20056;-70
2022/06/27 12:09:00;;;;;;;0.00;0.00;;;24.30;71.40;;;;;;4168825;28;20066;-69
2022/06/27 12:11:27;;;;;;;0.00;0.00;;;24.30;71.40;;;;;;4156978;28;20042;-69
2022/06/27 12:13:49;;;;;;;0.00;0.00;;;24.30;71.30;;;;;;4156696;28;20479;-69
2022/06/27 12:16:14;;;;;;;0.10;0.10;;;24.30;71.40;;;;;;4172304;28;20558;-69
2022/06/27 12:18:41;;;;;;;0.00;0.00;;;24.30;71.30;;;;;;4172410;28;20053;-69
2022/06/27 12:21:03;;;;;;;0.10;0.10;;;24.30;71.40;;;;;;4172878;28;20049;-69
2022/06/27 12:23:25;;;;;;;0.00;0.00;;;24.30;71.40;;;;;;4142684;28;20060;-70
2022/06/27 12:25:47;;;;;;;0.10;0.10;;;24.30;71.30;;;;;;4158192;28;20057;-71
2022/06/27 12:28:10;;;;;;;0.00;0.00;;;24.30;71.30;;;;;;4159607;28;20049;-70
2022/06/27 12:30:33;;;;;;;0.00;0.00;;;24.30;71.40;;;;;;4159352;28;20037;-71
2022/06/27 12:32:56;;;;;;;0.00;0.00;;;24.30;71.30;;;;;;4151540;28;20049;-71
2022/06/27 12:35:18;;;;;;;0.08;0.08;;;24.30;71.30;;;;;;4155951;28;20052;-70
2022/06/27 12:37:41;;;;;;;0.00;0.00;;;24.20;71.20;;;;;;4156801;28;20427;-70
2022/06/27 12:40:03;;;;;;;0.03;0.03;;;24.30;71.30;;;;;;4172070;28;20056;-70
2022/06/27 12:42:26;;;;;;;0.00;0.00;;;24.30;71.30;;;;;;4161489;28;20057;-71
2022/06/27 12:44:48;;;;;;;0.10;0.10;;;24.30;71.20;;;;;;4156818;28;20064;-70